createdAt,value
2022-08-29T00:00:24.818Z,14.40
2022-08-29T00:01:19.921Z,12.40
2022-08-29T00:02:14.968Z,12.80
2022-08-29T00:03:09.915Z,14.60
2022-08-29T00:04:05.086Z,12.50
2022-08-29T00:05:00.091Z,17.50
2022-08-29T00:05:55.166Z,11.90
2022-08-29T00:06:50.286Z,14.40
2022-08-29T00:07:45.360Z,12.70
2022-08-29T00:08:40.483Z,16.00
2022-08-29T00:09:35.560Z,12.70
2022-08-29T00:10:30.658Z,13.20
2022-08-29T00:11:28.705Z,17.00
2022-08-29T00:12:23.806Z,13.40
2022-08-29T00:13:18.892Z,13.30
2022-08-29T00:14:15.525Z,15.50
2022-08-29T00:15:09.984Z,13.80
2022-08-29T00:16:04.004Z,13.50
2022-08-29T00:16:59.130Z,14.90
2022-08-29T00:17:54.209Z,12.70
2022-08-29T00:18:49.237Z,13.00
2022-08-29T00:19:44.297Z,15.60
2022-08-29T00:20:39.405Z,12.30
2022-08-29T00:21:35.032Z,12.80
2022-08-29T00:22:30.270Z,14.40
2022-08-29T00:23:25.563Z,14.10
2022-08-29T00:24:20.789Z,12.30
2022-08-29T00:25:16.173Z,14.00
2022-08-29T00:26:11.430Z,15.60
2022-08-29T00:27:06.697Z,14.80
2022-08-29T00:28:02.060Z,12.70
2022-08-29T00:28:57.164Z,13.20
2022-08-29T00:29:52.363Z,13.40
2022-08-29T00:30:47.578Z,15.90
2022-08-29T00:31:42.849Z,12.90
2022-08-29T00:32:38.114Z,13.40
2022-08-29T00:33:33.368Z,12.80
2022-08-29T00:34:28.349Z,14.90
2022-08-29T00:35:23.430Z,12.60
2022-08-29T00:36:18.667Z,14.10
2022-08-29T00:37:13.506Z,12.80
2022-08-29T00:38:08.617Z,12.50
2022-08-29T00:39:03.638Z,11.90
2022-08-29T00:39:59.710Z,13.00
2022-08-29T00:40:53.743Z,11.70
2022-08-29T00:41:48.811Z,15.10
2022-08-29T00:42:43.925Z,13.80
2022-08-29T00:43:39.098Z,13.00
2022-08-29T00:44:34.046Z,12.90
2022-08-29T00:45:29.204Z,14.00
2022-08-29T00:46:24.290Z,12.60
2022-08-29T00:47:19.293Z,13.20
2022-08-29T00:48:14.535Z,14.50
2022-08-29T00:49:09.400Z,12.50
2022-08-29T00:50:04.489Z,12.40
2022-08-29T00:50:59.516Z,12.20
2022-08-29T00:51:54.580Z,13.00
2022-08-29T00:52:49.681Z,12.70
2022-08-29T00:53:44.906Z,13.90
2022-08-29T00:54:40.128Z,15.40
2022-08-29T00:55:35.333Z,12.90
2022-08-29T00:56:30.690Z,13.60
2022-08-29T00:57:25.935Z,12.00
2022-08-29T00:58:21.139Z,14.30
2022-08-29T00:59:16.495Z,11.30
2022-08-29T01:00:11.603Z,13.20
2022-08-29T01:01:06.888Z,11.90
2022-08-29T01:02:02.136Z,15.10
2022-08-29T01:02:57.365Z,11.40
2022-08-29T01:03:52.712Z,11.90
2022-08-29T01:04:47.958Z,11.60
2022-08-29T01:05:43.105Z,11.50
2022-08-29T01:06:38.314Z,10.00
2022-08-29T01:07:33.785Z,12.40
2022-08-29T01:08:28.930Z,11.90
2022-08-29T01:09:24.174Z,10.70
2022-08-29T01:10:19.381Z,10.50
2022-08-29T01:11:14.630Z,16.20
2022-08-29T01:12:10.623Z,12.30
2022-08-29T01:13:05.137Z,11.00
2022-08-29T01:14:00.368Z,11.50
2022-08-29T01:14:55.584Z,14.80
2022-08-29T01:15:51.024Z,12.10
2022-08-29T01:16:46.183Z,11.70
2022-08-29T01:17:41.395Z,14.20
2022-08-29T01:18:36.616Z,14.30
2022-08-29T01:19:31.875Z,11.70
2022-08-29T01:20:27.325Z,13.80
2022-08-29T01:21:22.601Z,11.90
2022-08-29T01:22:17.725Z,11.80
2022-08-29T01:23:12.932Z,12.00
2022-08-29T01:24:08.283Z,11.90
2022-08-29T01:25:03.600Z,11.00
2022-08-29T01:25:58.841Z,10.60
2022-08-29T01:26:54.039Z,11.90
2022-08-29T01:27:49.241Z,12.40
2022-08-29T01:28:44.441Z,12.60
2022-08-29T01:29:39.901Z,11.00
2022-08-29T01:30:35.873Z,12.20
2022-08-29T01:31:31.765Z,13.60
2022-08-29T01:32:26.649Z,11.40
2022-08-29T01:33:20.880Z,14.60
2022-08-29T01:34:16.099Z,11.80
2022-08-29T01:35:11.629Z,15.60
2022-08-29T01:36:06.606Z,10.40
2022-08-29T01:37:01.961Z,10.90
2022-08-29T01:37:59.069Z,12.50
2022-08-29T01:38:54.436Z,12.50
2022-08-29T01:39:49.622Z,12.50
2022-08-29T01:40:45.008Z,12.10
2022-08-29T01:41:40.190Z,11.30
2022-08-29T01:42:36.554Z,12.50
2022-08-29T01:43:30.448Z,10.40
2022-08-29T01:44:26.496Z,12.60
2022-08-29T01:45:20.615Z,12.90
2022-08-29T01:46:15.541Z,10.60
2022-08-29T01:47:10.650Z,11.70
2022-08-29T01:48:05.703Z,10.60
2022-08-29T01:49:00.923Z,12.10
2022-08-29T01:49:56.705Z,12.20
2022-08-29T01:50:52.016Z,10.80
2022-08-29T01:51:46.856Z,12.20
2022-08-29T01:52:41.969Z,12.10
2022-08-29T01:53:37.023Z,14.20
2022-08-29T01:54:32.344Z,11.40
2022-08-29T01:55:27.433Z,11.50
2022-08-29T01:56:22.581Z,13.10
2022-08-29T01:57:17.535Z,12.80
2022-08-29T01:58:12.724Z,10.70
2022-08-29T01:59:07.661Z,11.00
2022-08-29T02:00:02.923Z,12.10
2022-08-29T02:00:57.896Z,12.60
2022-08-29T02:01:52.908Z,11.20
2022-08-29T02:02:48.004Z,12.60
2022-08-29T02:03:43.065Z,12.90
2022-08-29T02:04:38.146Z,11.80
2022-08-29T02:05:33.200Z,13.30
2022-08-29T02:06:28.694Z,14.20
2022-08-29T02:07:23.576Z,13.90
2022-08-29T02:08:18.555Z,13.10
2022-08-29T02:09:13.545Z,11.20
2022-08-29T02:10:08.625Z,12.60
2022-08-29T02:11:03.696Z,12.80
2022-08-29T02:11:58.953Z,12.40
2022-08-29T02:12:54.315Z,14.20
2022-08-29T02:13:49.542Z,15.30
2022-08-29T02:14:44.778Z,12.10
2022-08-29T02:15:40.007Z,13.00
2022-08-29T02:16:35.574Z,12.20
2022-08-29T02:17:30.608Z,14.50
2022-08-29T02:18:25.816Z,11.60
2022-08-29T02:19:20.926Z,15.10
2022-08-29T02:20:15.980Z,12.20
2022-08-29T02:21:11.075Z,12.20
2022-08-29T02:22:10.066Z,11.50
2022-08-29T02:23:08.335Z,12.40
2022-08-29T02:24:15.995Z,11.90
2022-08-29T02:24:56.748Z,11.70
2022-08-29T02:25:50.992Z,12.50
2022-08-29T02:26:46.216Z,12.80
2022-08-29T02:27:41.428Z,14.00
2022-08-29T02:28:37.167Z,12.30
2022-08-29T02:29:37.162Z,12.10
2022-08-29T02:30:28.324Z,12.90
2022-08-29T02:31:22.604Z,14.60
2022-08-29T02:32:17.832Z,13.20
2022-08-29T02:33:13.025Z,13.20
2022-08-29T02:34:08.242Z,10.60
2022-08-29T02:35:03.473Z,11.30
2022-08-29T02:35:58.756Z,14.80
2022-08-29T02:36:53.939Z,11.80
2022-08-29T02:37:51.671Z,12.10
2022-08-29T02:38:46.878Z,11.00
2022-08-29T02:39:42.267Z,13.20
2022-08-29T02:40:37.420Z,10.20
2022-08-29T02:41:32.770Z,11.60
2022-08-29T02:42:28.106Z,12.10
2022-08-29T02:43:23.180Z,10.00
2022-08-29T02:44:19.904Z,11.90
2022-08-29T02:45:15.169Z,10.30
2022-08-29T02:46:10.349Z,10.00
2022-08-29T02:47:05.760Z,10.10
2022-08-29T02:48:01.004Z,10.80
2022-08-29T02:49:01.117Z,11.50
2022-08-29T02:49:52.088Z,13.50
2022-08-29T02:50:46.077Z,13.30
2022-08-29T02:51:41.165Z,11.40
2022-08-29T02:52:37.427Z,10.60
2022-08-29T02:53:31.316Z,10.00
2022-08-29T02:54:26.398Z,11.80
2022-08-29T02:55:22.994Z,10.90
2022-08-29T02:56:18.199Z,11.00
2022-08-29T02:57:13.546Z,12.20
2022-08-29T02:58:08.964Z,13.20
2022-08-29T02:59:04.177Z,11.00
2022-08-29T02:59:59.413Z,11.40
2022-08-29T03:00:54.664Z,11.90
2022-08-29T03:01:49.928Z,10.80
2022-08-29T03:02:45.160Z,11.40
2022-08-29T03:03:40.393Z,10.00
2022-08-29T03:04:35.558Z,13.50
2022-08-29T03:05:30.806Z,11.40
2022-08-29T03:06:26.023Z,10.20
2022-08-29T03:07:21.347Z,13.10
2022-08-29T03:08:16.616Z,13.40
2022-08-29T03:09:11.803Z,12.10
2022-08-29T03:10:07.037Z,12.10
2022-08-29T03:11:02.223Z,9.30
2022-08-29T03:11:57.446Z,12.00
2022-08-29T03:12:52.681Z,12.30
2022-08-29T03:13:47.837Z,9.80
2022-08-29T03:14:43.171Z,10.80
2022-08-29T03:15:38.349Z,9.60
2022-08-29T03:16:33.712Z,10.50
2022-08-29T03:17:29.063Z,12.50
2022-08-29T03:18:24.160Z,10.10
2022-08-29T03:19:19.507Z,11.30
2022-08-29T03:20:14.728Z,10.20
2022-08-29T03:21:10.049Z,11.40
2022-08-29T03:22:05.267Z,12.30
2022-08-29T03:23:00.486Z,10.60
2022-08-29T03:23:55.697Z,10.30
2022-08-29T03:24:51.177Z,10.10
2022-08-29T03:25:46.218Z,9.30
2022-08-29T03:26:41.398Z,9.20
2022-08-29T03:27:37.395Z,9.30
2022-08-29T03:28:31.939Z,9.70
2022-08-29T03:29:27.084Z,9.90
2022-08-29T03:30:23.980Z,9.40
2022-08-29T03:31:17.571Z,9.50
2022-08-29T03:32:13.194Z,11.40
2022-08-29T03:33:11.599Z,9.60
2022-08-29T03:34:03.314Z,10.80
2022-08-29T03:34:58.689Z,10.60
2022-08-29T03:35:53.853Z,12.90
2022-08-29T03:36:49.761Z,11.30
2022-08-29T03:37:44.320Z,12.80
2022-08-29T03:38:39.526Z,11.20
2022-08-29T03:39:34.724Z,9.90
2022-08-29T03:40:30.161Z,11.40
2022-08-29T03:41:25.379Z,10.70
2022-08-29T03:42:22.500Z,11.90
2022-08-29T03:43:17.793Z,12.10
2022-08-29T03:44:13.155Z,12.10
2022-08-29T03:45:08.278Z,13.30
2022-08-29T03:46:03.824Z,12.10
2022-08-29T03:46:58.915Z,12.50
2022-08-29T03:47:53.965Z,11.00
2022-08-29T03:48:48.898Z,13.10
2022-08-29T03:49:43.947Z,13.20
2022-08-29T03:50:39.040Z,12.40
2022-08-29T03:51:34.019Z,13.10
2022-08-29T03:52:29.217Z,17.60
2022-08-29T03:53:24.446Z,13.80
2022-08-29T03:54:20.253Z,13.60
2022-08-29T03:55:15.164Z,13.60
2022-08-29T03:56:10.868Z,14.10
2022-08-29T03:57:06.263Z,16.10
2022-08-29T03:58:00.286Z,11.70
2022-08-29T03:58:55.381Z,11.70
2022-08-29T03:59:54.215Z,15.40
2022-08-29T04:00:45.490Z,14.40
2022-08-29T04:01:41.007Z,12.00
2022-08-29T04:02:35.708Z,12.40
2022-08-29T04:03:31.484Z,13.80
2022-08-29T04:04:25.974Z,12.40
2022-08-29T04:05:22.062Z,13.40
2022-08-29T04:06:16.139Z,12.80
2022-08-29T04:07:10.976Z,16.80
2022-08-29T04:08:06.382Z,11.40
2022-08-29T04:09:01.177Z,10.90
2022-08-29T04:09:57.267Z,10.40
2022-08-29T04:10:52.374Z,12.30
2022-08-29T04:11:48.333Z,14.00
2022-08-29T04:12:43.497Z,11.20
2022-08-29T04:13:39.089Z,10.60
2022-08-29T04:14:34.794Z,12.50
2022-08-29T04:15:30.111Z,11.70
2022-08-29T04:16:25.566Z,14.40
2022-08-29T04:17:22.643Z,14.40
2022-08-29T04:18:21.583Z,13.70
2022-08-29T04:19:13.829Z,15.30
2022-08-29T04:20:08.021Z,12.00
2022-08-29T04:21:03.750Z,11.70
2022-08-29T04:21:59.180Z,12.70
2022-08-29T04:22:54.596Z,10.80
2022-08-29T04:23:50.286Z,10.80
2022-08-29T04:24:45.569Z,9.80
2022-08-29T04:25:41.186Z,10.00
2022-08-29T04:26:37.624Z,13.50
2022-08-29T04:27:31.924Z,11.70
2022-08-29T04:28:27.482Z,11.60
2022-08-29T04:29:23.610Z,13.20
2022-08-29T04:30:19.065Z,12.60
2022-08-29T04:31:14.718Z,11.20
2022-08-29T04:32:10.108Z,11.30
2022-08-29T04:33:05.548Z,11.70
2022-08-29T04:34:01.278Z,11.70
2022-08-29T04:34:56.707Z,10.00
2022-08-29T04:35:52.684Z,12.20
2022-08-29T04:36:47.954Z,10.40
2022-08-29T04:37:43.365Z,11.60
2022-08-29T04:38:39.478Z,12.50
2022-08-29T04:39:34.626Z,10.40
2022-08-29T04:40:30.190Z,12.70
2022-08-29T04:41:26.642Z,11.80
2022-08-29T04:42:22.318Z,10.80
2022-08-29T04:43:17.758Z,12.00
2022-08-29T04:44:13.126Z,12.20
2022-08-29T04:45:08.572Z,11.90
2022-08-29T04:46:04.261Z,12.00
2022-08-29T04:46:59.922Z,16.00
2022-08-29T04:47:55.466Z,10.70
2022-08-29T04:48:50.846Z,11.90
2022-08-29T04:49:46.267Z,11.60
2022-08-29T04:50:42.028Z,11.30
2022-08-29T04:51:37.300Z,10.00
2022-08-29T04:52:32.690Z,10.90
2022-08-29T04:53:29.047Z,10.80
2022-08-29T04:54:24.418Z,11.80
2022-08-29T04:55:22.551Z,10.70
2022-08-29T04:56:16.623Z,11.50
2022-08-29T04:57:11.290Z,10.40
2022-08-29T04:58:07.514Z,13.50
2022-08-29T04:59:02.937Z,9.80
2022-08-29T04:59:58.692Z,12.20
2022-08-29T05:00:54.329Z,10.40
2022-08-29T05:01:49.698Z,12.50
2022-08-29T05:02:46.242Z,9.50
2022-08-29T05:03:41.667Z,10.80
2022-08-29T05:04:37.106Z,11.50
2022-08-29T05:05:32.590Z,10.40
2022-08-29T05:06:28.318Z,10.20
2022-08-29T05:07:23.725Z,11.40
2022-08-29T05:08:19.183Z,14.50
2022-08-29T05:09:14.905Z,12.20
2022-08-29T05:10:10.399Z,9.60
2022-08-29T05:11:06.063Z,11.70
2022-08-29T05:12:01.515Z,11.20
2022-08-29T05:12:56.934Z,9.60
2022-08-29T05:13:52.756Z,13.60
2022-08-29T05:14:48.244Z,12.40
2022-08-29T05:15:43.690Z,11.20
2022-08-29T05:16:40.062Z,10.20
2022-08-29T05:17:35.551Z,13.10
2022-08-29T05:18:31.263Z,11.00
2022-08-29T05:19:26.700Z,11.60
2022-08-29T05:20:22.197Z,12.90
2022-08-29T05:21:18.051Z,15.80
2022-08-29T05:22:13.474Z,10.70
2022-08-29T05:23:08.936Z,12.70
2022-08-29T05:24:04.353Z,15.10
2022-08-29T05:24:59.839Z,11.80
2022-08-29T05:25:55.004Z,11.40
2022-08-29T05:26:49.875Z,12.90
2022-08-29T05:27:44.928Z,10.60
2022-08-29T05:28:40.040Z,11.40
2022-08-29T05:29:35.750Z,11.10
2022-08-29T05:30:34.216Z,12.70
2022-08-29T05:31:26.989Z,11.90
2022-08-29T05:32:21.357Z,13.20
2022-08-29T05:33:17.235Z,11.30
2022-08-29T05:34:34.191Z,11.00
2022-08-29T05:35:10.213Z,13.60
2022-08-29T05:36:04.223Z,15.70
2022-08-29T05:37:00.015Z,12.50
2022-08-29T05:37:55.535Z,12.20
2022-08-29T05:38:51.167Z,13.10
2022-08-29T05:39:46.696Z,12.90
2022-08-29T05:40:42.264Z,12.30
2022-08-29T05:41:38.638Z,14.80
2022-08-29T05:42:33.303Z,12.00
2022-08-29T05:43:28.804Z,13.90
2022-08-29T05:44:25.142Z,11.80
2022-08-29T05:45:20.519Z,12.10
2022-08-29T05:46:20.087Z,10.60
2022-08-29T05:47:12.331Z,11.30
2022-08-29T05:48:08.632Z,14.60
2022-08-29T05:49:04.308Z,12.00
2022-08-29T05:49:59.161Z,12.20
2022-08-29T05:50:54.662Z,13.60
2022-08-29T05:51:50.377Z,13.00
2022-08-29T05:52:46.040Z,12.00
2022-08-29T05:53:41.657Z,12.00
2022-08-29T05:54:37.064Z,13.70
2022-08-29T05:55:32.421Z,15.50
2022-08-29T05:56:28.374Z,14.10
2022-08-29T05:57:23.856Z,11.30
2022-08-29T05:58:19.451Z,11.20
2022-08-29T05:59:15.639Z,13.60
2022-08-29T06:00:11.331Z,9.90
2022-08-29T06:01:07.058Z,11.50
2022-08-29T06:02:02.568Z,13.70
2022-08-29T06:02:58.161Z,11.90
2022-08-29T06:03:53.907Z,13.70
2022-08-29T06:04:49.286Z,12.10
2022-08-29T06:05:45.244Z,13.00
2022-08-29T06:06:40.635Z,12.10
2022-08-29T06:07:36.160Z,11.30
2022-08-29T06:08:31.938Z,12.30
2022-08-29T06:09:27.315Z,12.50
2022-08-29T06:10:22.801Z,12.10
2022-08-29T06:11:19.186Z,14.10
2022-08-29T06:12:15.055Z,15.10
2022-08-29T06:13:10.143Z,11.30
2022-08-29T06:14:06.871Z,12.20
2022-08-29T06:15:02.367Z,12.80
2022-08-29T06:15:58.823Z,12.10
2022-08-29T06:16:53.662Z,12.10
2022-08-29T06:17:49.155Z,13.10
2022-08-29T06:18:44.946Z,10.20
2022-08-29T06:19:40.811Z,11.20
2022-08-29T06:20:36.272Z,11.90
2022-08-29T06:21:31.659Z,13.90
2022-08-29T06:22:27.038Z,13.90
2022-08-29T06:23:26.652Z,12.30
2022-08-29T06:24:19.460Z,12.40
2022-08-29T06:25:37.497Z,13.50
2022-08-29T06:26:09.971Z,12.10
2022-08-29T06:27:03.816Z,13.30
2022-08-29T06:27:58.924Z,12.90
2022-08-29T06:28:54.167Z,13.70
2022-08-29T06:29:49.258Z,12.80
2022-08-29T06:30:44.478Z,11.10
2022-08-29T06:31:39.439Z,16.50
2022-08-29T06:32:34.532Z,11.30
2022-08-29T06:33:29.527Z,12.90
2022-08-29T06:34:25.003Z,11.50
2022-08-29T06:35:19.684Z,12.60
2022-08-29T06:36:16.046Z,15.00
2022-08-29T06:37:11.405Z,12.60
2022-08-29T06:38:08.783Z,15.60
2022-08-29T06:39:03.414Z,13.90
2022-08-29T06:39:57.835Z,14.60
2022-08-29T06:40:53.502Z,13.30
2022-08-29T06:41:49.025Z,12.40
2022-08-29T06:42:44.654Z,12.60
2022-08-29T06:43:39.087Z,11.60
2022-08-29T06:44:34.244Z,13.20
2022-08-29T06:45:29.227Z,13.50
2022-08-29T06:46:24.302Z,16.70
2022-08-29T06:47:19.323Z,12.20
2022-08-29T06:48:15.358Z,15.10
2022-08-29T06:49:09.525Z,15.60
2022-08-29T06:50:07.827Z,13.70
2022-08-29T06:51:03.010Z,14.90
2022-08-29T06:51:58.701Z,13.20
2022-08-29T06:52:55.333Z,12.50
2022-08-29T06:53:48.069Z,14.10
2022-08-29T06:54:43.162Z,13.50
2022-08-29T06:55:38.151Z,13.60
2022-08-29T06:56:33.254Z,13.10
2022-08-29T06:57:28.279Z,13.20
2022-08-29T06:58:23.533Z,17.40
2022-08-29T06:59:19.847Z,12.70
2022-08-29T07:00:21.622Z,12.40
2022-08-29T07:01:12.192Z,13.50
2022-08-29T07:02:06.833Z,13.80
2022-08-29T07:03:02.233Z,13.70
2022-08-29T07:03:58.013Z,14.10
2022-08-29T07:04:54.229Z,12.60
2022-08-29T07:05:49.270Z,13.70
2022-08-29T07:06:44.679Z,16.30
2022-08-29T07:07:40.183Z,18.80
2022-08-29T07:08:35.832Z,12.70
2022-08-29T07:09:31.186Z,16.30
2022-08-29T07:10:26.684Z,11.80
2022-08-29T07:11:23.107Z,14.70
2022-08-29T07:12:18.485Z,12.10
2022-08-29T07:13:15.044Z,14.90
2022-08-29T07:14:09.957Z,15.50
2022-08-29T07:15:05.358Z,16.70
2022-08-29T07:16:01.197Z,13.10
2022-08-29T07:16:56.618Z,13.00
2022-08-29T07:17:56.562Z,13.70
2022-08-29T07:18:48.754Z,12.60
2022-08-29T07:19:43.752Z,12.10
2022-08-29T07:20:39.144Z,12.80
2022-08-29T07:21:35.135Z,14.60
2022-08-29T07:22:30.533Z,12.80
2022-08-29T07:23:26.238Z,11.80
2022-08-29T07:24:24.901Z,11.80
2022-08-29T07:25:17.356Z,15.90
2022-08-29T07:26:12.982Z,12.40
2022-08-29T07:27:09.409Z,12.80
2022-08-29T07:28:04.820Z,11.80
2022-08-29T07:29:00.623Z,12.50
2022-08-29T07:29:56.047Z,14.00
2022-08-29T07:30:51.543Z,10.90
2022-08-29T07:31:47.564Z,13.50
2022-08-29T07:32:42.885Z,14.00
2022-08-29T07:33:38.642Z,15.60
2022-08-29T07:34:34.094Z,12.70
2022-08-29T07:35:30.850Z,10.90
2022-08-29T07:36:25.514Z,13.10
2022-08-29T07:37:21.172Z,9.80
2022-08-29T07:38:16.463Z,12.10
2022-08-29T07:39:12.901Z,11.80
2022-08-29T07:40:08.545Z,11.40
2022-08-29T07:41:04.399Z,10.90
2022-08-29T07:41:59.876Z,9.90
2022-08-29T07:42:55.446Z,10.10
2022-08-29T07:43:51.067Z,12.10
2022-08-29T07:44:46.652Z,10.10
2022-08-29T07:45:42.511Z,9.80
2022-08-29T07:46:37.768Z,12.80
2022-08-29T07:47:33.247Z,11.20
2022-08-29T07:48:30.184Z,9.70
2022-08-29T07:49:32.447Z,12.80
2022-08-29T07:50:21.548Z,12.00
2022-08-29T07:51:17.987Z,14.20
2022-08-29T07:52:13.556Z,9.80
2022-08-29T07:53:09.115Z,10.70
2022-08-29T07:54:05.053Z,10.30
2022-08-29T07:55:00.231Z,12.00
2022-08-29T07:55:55.753Z,11.30
2022-08-29T07:56:51.923Z,11.20
2022-08-29T07:57:47.506Z,9.50
2022-08-29T07:58:43.363Z,10.60
2022-08-29T07:59:38.934Z,9.80
2022-08-29T08:00:34.360Z,12.80
2022-08-29T08:01:30.200Z,10.40
2022-08-29T08:02:25.664Z,9.10
2022-08-29T08:03:21.444Z,9.20
2022-08-29T08:04:16.723Z,9.50
2022-08-29T08:05:12.251Z,11.10
2022-08-29T08:06:08.086Z,12.40
2022-08-29T08:07:03.201Z,9.30
2022-08-29T08:08:04.729Z,11.70
2022-08-29T08:08:56.472Z,8.50
2022-08-29T08:09:50.921Z,9.60
2022-08-29T08:10:51.855Z,9.40
2022-08-29T08:11:42.694Z,9.40
2022-08-29T08:12:37.719Z,10.30
2022-08-29T08:13:32.762Z,9.60
2022-08-29T08:14:34.792Z,10.00
2022-08-29T08:15:23.912Z,10.60
2022-08-29T08:16:19.148Z,9.30
2022-08-29T08:17:14.600Z,10.10
2022-08-29T08:18:09.619Z,11.40
2022-08-29T08:19:04.739Z,10.40
2022-08-29T08:19:59.689Z,11.60
2022-08-29T08:20:54.748Z,11.10
2022-08-29T08:21:50.271Z,9.50
2022-08-29T08:22:47.457Z,9.30
2022-08-29T08:23:42.518Z,10.70
2022-08-29T08:24:37.630Z,9.50
2022-08-29T08:25:32.730Z,10.20
2022-08-29T08:26:27.751Z,10.70
2022-08-29T08:27:22.837Z,11.30
2022-08-29T08:28:18.036Z,11.10
2022-08-29T08:29:12.979Z,12.90
2022-08-29T08:30:08.995Z,10.00
2022-08-29T08:31:06.363Z,10.10
2022-08-29T08:31:59.543Z,11.10
2022-08-29T08:32:55.089Z,10.30
2022-08-29T08:33:49.461Z,10.50
2022-08-29T08:34:48.855Z,11.50
2022-08-29T08:35:46.882Z,13.80
2022-08-29T08:36:41.375Z,12.80
2022-08-29T08:37:35.546Z,12.60
2022-08-29T08:38:31.316Z,13.70
2022-08-29T08:39:26.647Z,12.30
2022-08-29T08:40:22.209Z,11.90
2022-08-29T08:41:18.125Z,11.20
2022-08-29T08:42:13.317Z,13.00
2022-08-29T08:43:08.805Z,11.20
2022-08-29T08:44:05.229Z,11.30
2022-08-29T08:45:00.525Z,14.90
2022-08-29T08:45:56.452Z,11.40
2022-08-29T08:46:51.843Z,12.20
2022-08-29T08:47:47.282Z,13.30
2022-08-29T08:48:43.057Z,11.60
2022-08-29T08:49:39.579Z,11.60
2022-08-29T08:50:34.479Z,12.60
2022-08-29T08:51:29.863Z,12.60
2022-08-29T08:52:25.321Z,11.40
2022-08-29T08:53:21.224Z,11.50
2022-08-29T08:54:16.743Z,11.00
2022-08-29T08:55:12.597Z,12.20
2022-08-29T08:56:08.614Z,11.80
2022-08-29T08:57:04.183Z,11.30
2022-08-29T08:58:00.117Z,12.30
2022-08-29T08:58:55.679Z,11.10
2022-08-29T08:59:50.870Z,11.60
2022-08-29T09:00:46.629Z,12.60
2022-08-29T09:01:42.337Z,12.80
2022-08-29T09:02:38.181Z,12.50
2022-08-29T09:03:33.514Z,9.90
2022-08-29T09:04:28.906Z,8.10
2022-08-29T09:05:24.722Z,9.00
2022-08-29T09:06:20.234Z,7.70
2022-08-29T09:07:15.784Z,7.10
2022-08-29T09:08:12.069Z,8.80
2022-08-29T09:09:08.149Z,7.90
2022-08-29T09:10:03.465Z,8.60
2022-08-29T09:10:59.336Z,8.30
2022-08-29T09:11:54.600Z,11.00
2022-08-29T09:12:51.530Z,10.10
2022-08-29T09:13:45.898Z,11.80
2022-08-29T09:14:41.610Z,10.80
2022-08-29T09:15:36.930Z,9.50
2022-08-29T09:16:32.348Z,9.50
2022-08-29T09:17:28.070Z,10.00
2022-08-29T09:18:24.166Z,7.40
2022-08-29T09:19:19.365Z,7.90
2022-08-29T09:20:16.135Z,8.20
2022-08-29T09:21:36.999Z,9.20
2022-08-29T09:22:08.383Z,8.80
2022-08-29T09:23:02.705Z,7.30
2022-08-29T09:23:58.210Z,7.10
2022-08-29T09:24:53.919Z,7.50
2022-08-29T09:25:49.448Z,7.80
2022-08-29T09:26:45.385Z,7.10
2022-08-29T09:27:41.383Z,8.50
2022-08-29T09:28:36.166Z,6.70
2022-08-29T09:29:31.566Z,7.30
2022-08-29T09:30:27.068Z,7.40
2022-08-29T09:31:22.856Z,7.10
2022-08-29T09:32:22.359Z,7.40
2022-08-29T09:33:14.365Z,6.80
2022-08-29T09:34:11.881Z,7.60
2022-08-29T09:35:08.862Z,7.90
2022-08-29T09:36:00.886Z,8.80
2022-08-29T09:36:56.134Z,6.90
2022-08-29T09:37:51.648Z,6.90
2022-08-29T09:38:47.887Z,7.90
2022-08-29T09:39:43.397Z,7.10
2022-08-29T09:40:39.403Z,6.90
2022-08-29T09:41:34.814Z,9.30
2022-08-29T09:42:30.322Z,7.20
2022-08-29T09:43:26.004Z,8.70
2022-08-29T09:44:21.519Z,7.80
2022-08-29T09:45:17.203Z,6.90
2022-08-29T09:47:37.228Z,6.30
2022-08-29T09:48:35.529Z,6.90
2022-08-29T09:49:28.143Z,7.70
2022-08-29T09:50:23.844Z,8.20
2022-08-29T09:51:19.133Z,9.70
2022-08-29T09:52:14.512Z,8.20
2022-08-29T09:53:23.713Z,9.50
2022-08-29T09:54:06.588Z,8.30
2022-08-29T09:55:01.032Z,9.10
2022-08-29T09:55:56.552Z,9.00
2022-08-29T09:56:52.063Z,8.40
2022-08-29T09:57:47.584Z,9.90
2022-08-29T09:58:43.205Z,8.20
2022-08-29T09:59:39.722Z,7.20
2022-08-29T10:00:34.062Z,7.30
2022-08-29T10:01:29.731Z,9.70
2022-08-29T10:02:25.179Z,6.70
2022-08-29T10:03:20.634Z,7.60
2022-08-29T10:04:16.122Z,6.40
2022-08-29T10:05:13.121Z,6.20
2022-08-29T10:06:07.583Z,6.60
2022-08-29T10:07:02.560Z,5.90
2022-08-29T10:07:58.076Z,7.90
2022-08-29T10:08:53.379Z,6.70
2022-08-29T10:09:48.758Z,7.80
2022-08-29T10:10:44.355Z,9.90
2022-08-29T10:11:39.873Z,7.90
2022-08-29T10:12:35.232Z,6.50
2022-08-29T10:13:30.636Z,5.90
2022-08-29T10:14:26.660Z,6.30
2022-08-29T10:15:39.861Z,6.30
2022-08-29T10:16:18.300Z,8.30
2022-08-29T10:17:12.548Z,11.00
2022-08-29T10:18:08.093Z,8.20
2022-08-29T10:19:03.493Z,7.60
2022-08-29T10:19:58.861Z,8.30
2022-08-29T10:20:54.444Z,7.80
2022-08-29T10:21:49.963Z,7.40
2022-08-29T10:22:45.600Z,7.20
2022-08-29T10:23:40.867Z,7.50
2022-08-29T10:24:36.233Z,6.70
2022-08-29T10:25:31.773Z,6.40
2022-08-29T10:26:27.501Z,6.10
2022-08-29T10:27:23.010Z,6.40
2022-08-29T10:28:18.529Z,6.20
2022-08-29T10:29:14.082Z,6.00
2022-08-29T10:30:09.782Z,6.50
2022-08-29T10:31:05.319Z,6.50
2022-08-29T10:32:00.794Z,5.80
2022-08-29T10:32:56.186Z,8.40
2022-08-29T10:33:51.707Z,6.10
2022-08-29T10:34:47.235Z,5.50
2022-08-29T10:35:42.789Z,6.50
2022-08-29T10:36:38.226Z,6.60
2022-08-29T10:37:33.749Z,6.60
2022-08-29T10:38:29.246Z,5.40
2022-08-29T10:39:24.695Z,5.20
2022-08-29T10:40:20.358Z,6.10
2022-08-29T10:41:15.759Z,5.00
2022-08-29T10:42:11.301Z,6.30
2022-08-29T10:43:06.806Z,5.40
2022-08-29T10:44:02.250Z,7.20
2022-08-29T10:44:57.755Z,5.00
2022-08-29T10:45:53.512Z,4.70
2022-08-29T10:46:48.859Z,5.50
2022-08-29T10:47:44.279Z,5.80
2022-08-29T10:48:40.695Z,6.30
2022-08-29T10:49:35.500Z,3.90
2022-08-29T10:50:46.526Z,8.50
2022-08-29T10:51:27.736Z,4.40
2022-08-29T10:52:22.178Z,5.70
2022-08-29T10:53:17.710Z,4.10
2022-08-29T10:54:13.053Z,4.80
2022-08-29T10:55:08.639Z,4.60
2022-08-29T10:56:06.872Z,5.70
2022-08-29T10:56:59.714Z,5.60
2022-08-29T10:57:55.535Z,5.10
2022-08-29T10:58:50.714Z,4.60
2022-08-29T10:59:46.002Z,4.90
2022-08-29T11:00:41.543Z,4.40
2022-08-29T11:01:36.932Z,4.40
2022-08-29T11:02:32.224Z,4.00
2022-08-29T11:03:27.774Z,3.80
2022-08-29T11:04:23.537Z,6.30
2022-08-29T11:05:18.722Z,3.90
2022-08-29T11:06:14.182Z,4.40
2022-08-29T11:07:09.755Z,4.30
2022-08-29T11:08:05.259Z,6.00
2022-08-29T11:09:00.579Z,4.60
2022-08-29T11:09:56.043Z,3.70
2022-08-29T11:10:51.403Z,4.30
2022-08-29T11:11:46.849Z,4.40
2022-08-29T11:12:42.243Z,4.70
2022-08-29T11:13:38.116Z,4.00
2022-08-29T11:14:33.181Z,6.50
2022-08-29T11:15:28.743Z,6.70
2022-08-29T11:16:24.221Z,4.10
2022-08-29T11:17:19.674Z,5.30
2022-08-29T11:18:15.565Z,4.10
2022-08-29T11:19:11.503Z,5.00
2022-08-29T11:20:05.740Z,4.30
2022-08-29T11:21:01.184Z,5.40
2022-08-29T11:21:56.939Z,5.30
2022-08-29T11:22:52.305Z,5.10
2022-08-29T11:23:47.832Z,3.90
2022-08-29T11:24:47.033Z,3.90
2022-08-29T11:25:39.014Z,4.40
2022-08-29T11:26:34.429Z,4.00
2022-08-29T11:27:29.886Z,4.40
2022-08-29T11:28:25.365Z,5.70
2022-08-29T11:29:20.848Z,4.10
2022-08-29T11:30:16.246Z,4.80
2022-08-29T11:31:11.967Z,7.30
2022-08-29T11:32:07.108Z,5.00
2022-08-29T11:33:03.426Z,4.40
2022-08-29T11:33:58.238Z,4.60
2022-08-29T11:34:53.529Z,4.90
2022-08-29T11:35:49.047Z,5.00
2022-08-29T11:36:44.682Z,5.20
2022-08-29T11:37:40.057Z,5.00
2022-08-29T11:38:36.192Z,6.70
2022-08-29T11:39:31.254Z,5.10
2022-08-29T11:41:27.313Z,7.40
2022-08-29T11:42:49.825Z,4.50
2022-08-29T11:43:14.266Z,5.10
2022-08-29T11:44:08.719Z,6.40
2022-08-29T11:45:04.245Z,6.10
2022-08-29T11:45:59.776Z,4.30
2022-08-29T11:46:56.198Z,5.00
2022-08-29T11:47:50.821Z,5.30
2022-08-29T11:48:47.333Z,5.60
2022-08-29T11:49:41.635Z,5.80
2022-08-29T11:50:37.318Z,4.20
2022-08-29T11:51:32.826Z,4.50
2022-08-29T11:52:28.380Z,4.10
2022-08-29T11:53:23.933Z,4.90
2022-08-29T11:54:19.462Z,4.60
2022-08-29T11:55:16.187Z,4.70
2022-08-29T11:56:10.606Z,4.20
2022-08-29T11:57:06.121Z,5.40
2022-08-29T11:58:04.988Z,5.10
2022-08-29T11:58:57.078Z,5.90
2022-08-29T11:59:52.616Z,4.20
2022-08-29T12:00:48.105Z,3.90
2022-08-29T12:01:43.647Z,4.70
2022-08-29T12:02:39.247Z,6.90